sensor_id;sensor_type;location;lat;lon;timestamp;P1;P2;P0
73414;PMS5003;61633;53.742;-2.990;2022-09-04T00:01:18;7;6;
73414;PMS5003;61633;53.742;-2.990;2022-09-04T00:03:45;7;6;
73414;PMS5003;61633;53.742;-2.990;2022-09-04T00:06:10;6;6;
73414;PMS5003;61633;53.742;-2.990;2022-09-04T00:08:36;9;9;
73414;PMS5003;61633;53.742;-2.990;2022-09-04T00:10:59;6;5;
73414;PMS5003;61633;53.742;-2.990;2022-09-04T00:13:25;9;8;
73414;PMS5003;61633;53.742;-2.990;2022-09-04T00:15:51;6;6;
73414;PMS5003;61633;53.742;-2.990;2022-09-04T00:18:16;8;7;
73414;PMS5003;61633;53.742;-2.990;2022-09-04T00:20:42;7;7;
73414;PMS5003;61633;53.742;-2.990;2022-09-04T00:23:08;7;6;
73414;PMS5003;61633;53.742;-2.990;2022-09-04T00:25:33;9;7;
73414;PMS5003;61633;53.742;-2.990;2022-09-04T00:27:58;7;7;
73414;PMS5003;61633;53.742;-2.990;2022-09-04T00:30:22;7;7;
73414;PMS5003;61633;53.742;-2.990;2022-09-04T00:32:50;7;7;
73414;PMS5003;61633;53.742;-2.990;2022-09-04T00:35:14;6;6;
73414;PMS5003;61633;53.742;-2.990;2022-09-04T00:37:40;9;8;
73414;PMS5003;61633;53.742;-2.990;2022-09-04T00:40:07;8;8;
73414;PMS5003;61633;53.742;-2.990;2022-09-04T00:42:35;9;7;
73414;PMS5003;61633;53.742;-2.990;2022-09-04T00:44:57;8;8;
73414;PMS5003;61633;53.742;-2.990;2022-09-04T00:47:26;9;8;
73414;PMS5003;61633;53.742;-2.990;2022-09-04T00:49:50;7;7;
73414;PMS5003;61633;53.742;-2.990;2022-09-04T00:52:15;6;6;
73414;PMS5003;61633;53.742;-2.990;2022-09-04T00:54:40;9;9;
73414;PMS5003;61633;53.742;-2.990;2022-09-04T00:59:33;6;6;
73414;PMS5003;61633;53.742;-2.990;2022-09-04T01:01:55;7;7;
73414;PMS5003;61633;53.742;-2.990;2022-09-04T01:04:28;7;7;
73414;PMS5003;61633;53.742;-2.990;2022-09-04T01:06:48;9;9;
73414;PMS5003;61633;53.742;-2.990;2022-09-04T01:09:16;7;7;
73414;PMS5003;61633;53.742;-2.990;2022-09-04T01:11:39;9;8;
73414;PMS5003;61633;53.742;-2.990;2022-09-04T01:14:04;6;6;
73414;PMS5003;61633;53.742;-2.990;2022-09-04T01:16:29;7;6;
73414;PMS5003;61633;53.742;-2.990;2022-09-04T01:18:53;6;6;
73414;PMS5003;61633;53.742;-2.990;2022-09-04T01:21:23;8;8;
73414;PMS5003;61633;53.742;-2.990;2022-09-04T01:23:54;7;7;
73414;PMS5003;61633;53.742;-2.990;2022-09-04T01:26:11;8;8;
73414;PMS5003;61633;53.742;-2.990;2022-09-04T01:28:38;7;7;
73414;PMS5003;61633;53.742;-2.990;2022-09-04T01:31:01;9;9;
73414;PMS5003;61633;53.742;-2.990;2022-09-04T01:33:27;8;7;
73414;PMS5003;61633;53.742;-2.990;2022-09-04T01:35:53;7;7;
73414;PMS5003;61633;53.742;-2.990;2022-09-04T01:38:23;7;7;
73414;PMS5003;61633;53.742;-2.990;2022-09-04T01:40:43;10;9;
73414;PMS5003;61633;53.742;-2.990;2022-09-04T01:43:08;8;8;
73414;PMS5003;61633;53.742;-2.990;2022-09-04T01:45:36;9;9;
73414;PMS5003;61633;53.742;-2.990;2022-09-04T01:47:59;10;9;
73414;PMS5003;61633;53.742;-2.990;2022-09-04T01:50:24;12;10;
73414;PMS5003;61633;53.742;-2.990;2022-09-04T01:52:52;11;9;
73414;PMS5003;61633;53.742;-2.990;2022-09-04T01:55:17;9;8;
73414;PMS5003;61633;53.742;-2.990;2022-09-04T01:57:45;8;8;
73414;PMS5003;61633;53.742;-2.990;2022-09-04T02:00:07;9;8;
73414;PMS5003;61633;53.742;-2.990;2022-09-04T02:02:33;9;8;
73414;PMS5003;61633;53.742;-2.990;2022-09-04T02:04:58;10;9;
73414;PMS5003;61633;53.742;-2.990;2022-09-04T02:07:24;9;9;
73414;PMS5003;61633;53.742;-2.990;2022-09-04T02:09:50;10;9;
73414;PMS5003;61633;53.742;-2.990;2022-09-04T02:12:16;8;7;
73414;PMS5003;61633;53.742;-2.990;2022-09-04T02:14:44;13;12;
73414;PMS5003;61633;53.742;-2.990;2022-09-04T02:17:07;9;9;
73414;PMS5003;61633;53.742;-2.990;2022-09-04T02:19:34;9;9;
73414;PMS5003;61633;53.742;-2.990;2022-09-04T02:21:57;11;8;
73414;PMS5003;61633;53.742;-2.990;2022-09-04T02:24:22;10;8;
73414;PMS5003;61633;53.742;-2.990;2022-09-04T02:26:48;8;8;
73414;PMS5003;61633;53.742;-2.990;2022-09-04T02:29:13;9;8;
73414;PMS5003;61633;53.742;-2.990;2022-09-04T02:31:39;7;7;
73414;PMS5003;61633;53.742;-2.990;2022-09-04T02:34:04;10;10;
73414;PMS5003;61633;53.742;-2.990;2022-09-04T02:36:29;8;8;
73414;PMS5003;61633;53.742;-2.990;2022-09-04T02:38:54;9;8;
73414;PMS5003;61633;53.742;-2.990;2022-09-04T02:41:19;8;8;
73414;PMS5003;61633;53.742;-2.990;2022-09-04T02:43:48;8;7;
73414;PMS5003;61633;53.742;-2.990;2022-09-04T02:46:12;8;8;
73414;PMS5003;61633;53.742;-2.990;2022-09-04T02:48:40;8;6;
73414;PMS5003;61633;53.742;-2.990;2022-09-04T02:51:07;8;8;
73414;PMS5003;61633;53.742;-2.990;2022-09-04T02:53:30;6;6;
73414;PMS5003;61633;53.742;-2.990;2022-09-04T02:55:55;6;6;
73414;PMS5003;61633;53.742;-2.990;2022-09-04T02:58:26;7;7;
73414;PMS5003;61633;53.742;-2.990;2022-09-04T03:00:45;10;9;
73414;PMS5003;61633;53.742;-2.990;2022-09-04T03:03:10;6;6;
73414;PMS5003;61633;53.742;-2.990;2022-09-04T03:05:34;8;8;
73414;PMS5003;61633;53.742;-2.990;2022-09-04T03:08:00;8;7;
73414;PMS5003;61633;53.742;-2.990;2022-09-04T03:10:25;8;7;
73414;PMS5003;61633;53.742;-2.990;2022-09-04T03:12:50;10;7;
73414;PMS5003;61633;53.742;-2.990;2022-09-04T03:15:17;7;7;
73414;PMS5003;61633;53.742;-2.990;2022-09-04T03:17:43;7;7;
73414;PMS5003;61633;53.742;-2.990;2022-09-04T03:20:07;9;8;
73414;PMS5003;61633;53.742;-2.990;2022-09-04T03:22:32;7;7;
73414;PMS5003;61633;53.742;-2.990;2022-09-04T03:25:00;7;7;
73414;PMS5003;61633;53.742;-2.990;2022-09-04T03:27:22;10;9;
73414;PMS5003;61633;53.742;-2.990;2022-09-04T03:29:49;9;8;
73414;PMS5003;61633;53.742;-2.990;2022-09-04T03:32:15;12;9;
73414;PMS5003;61633;53.742;-2.990;2022-09-04T03:34:41;9;9;
73414;PMS5003;61633;53.742;-2.990;2022-09-04T03:37:11;7;7;
73414;PMS5003;61633;53.742;-2.990;2022-09-04T03:39:32;12;11;
73414;PMS5003;61633;53.742;-2.990;2022-09-04T03:41:58;8;8;
73414;PMS5003;61633;53.742;-2.990;2022-09-04T03:44:23;9;9;
73414;PMS5003;61633;53.742;-2.990;2022-09-04T03:46:50;9;8;
73414;PMS5003;61633;53.742;-2.990;2022-09-04T03:49:15;8;8;
73414;PMS5003;61633;53.742;-2.990;2022-09-04T03:51:42;10;10;
73414;PMS5003;61633;53.742;-2.990;2022-09-04T03:54:06;8;8;
73414;PMS5003;61633;53.742;-2.990;2022-09-04T03:56:34;8;8;
73414;PMS5003;61633;53.742;-2.990;2022-09-04T03:58:59;10;9;
73414;PMS5003;61633;53.742;-2.990;2022-09-04T04:01:21;9;9;
73414;PMS5003;61633;53.742;-2.990;2022-09-04T04:03:50;10;9;
73414;PMS5003;61633;53.742;-2.990;2022-09-04T04:06:14;10;10;
73414;PMS5003;61633;53.742;-2.990;2022-09-04T04:08:40;10;9;
73414;PMS5003;61633;53.742;-2.990;2022-09-04T04:11:06;10;10;
73414;PMS5003;61633;53.742;-2.990;2022-09-04T04:13:34;11;10;
73414;PMS5003;61633;53.742;-2.990;2022-09-04T04:15:56;11;10;
73414;PMS5003;61633;53.742;-2.990;2022-09-04T04:18:23;10;10;
73414;PMS5003;61633;53.742;-2.990;2022-09-04T04:20:45;11;11;
73414;PMS5003;61633;53.742;-2.990;2022-09-04T04:23:13;13;11;
73414;PMS5003;61633;53.742;-2.990;2022-09-04T04:25:39;11;8;
73414;PMS5003;61633;53.742;-2.990;2022-09-04T04:28:04;11;10;
73414;PMS5003;61633;53.742;-2.990;2022-09-04T04:30:25;14;11;
73414;PMS5003;61633;53.742;-2.990;2022-09-04T04:32:56;15;12;
73414;PMS5003;61633;53.742;-2.990;2022-09-04T04:35:17;14;12;
73414;PMS5003;61633;53.742;-2.990;2022-09-04T04:37:44;9;9;
73414;PMS5003;61633;53.742;-2.990;2022-09-04T04:40:09;11;9;
73414;PMS5003;61633;53.742;-2.990;2022-09-04T04:42:34;10;10;
73414;PMS5003;61633;53.742;-2.990;2022-09-04T04:45:04;14;13;
73414;PMS5003;61633;53.742;-2.990;2022-09-04T04:47:26;15;14;
73414;PMS5003;61633;53.742;-2.990;2022-09-04T04:49:55;10;10;
73414;PMS5003;61633;53.742;-2.990;2022-09-04T04:52:19;14;13;
73414;PMS5003;61633;53.742;-2.990;2022-09-04T04:54:44;13;11;
73414;PMS5003;61633;53.742;-2.990;2022-09-04T04:57:06;12;11;
73414;PMS5003;61633;53.742;-2.990;2022-09-04T04:59:33;9;9;
73414;PMS5003;61633;53.742;-2.990;2022-09-04T05:02:00;12;12;
73414;PMS5003;61633;53.742;-2.990;2022-09-04T05:04:24;12;11;
73414;PMS5003;61633;53.742;-2.990;2022-09-04T05:06:48;12;11;
73414;PMS5003;61633;53.742;-2.990;2022-09-04T05:09:15;10;10;
73414;PMS5003;61633;53.742;-2.990;2022-09-04T05:11:41;12;12;
73414;PMS5003;61633;53.742;-2.990;2022-09-04T05:14:05;13;13;
73414;PMS5003;61633;53.742;-2.990;2022-09-04T05:16:32;11;11;
73414;PMS5003;61633;53.742;-2.990;2022-09-04T05:18:57;14;12;
73414;PMS5003;61633;53.742;-2.990;2022-09-04T05:21:21;8;8;
73414;PMS5003;61633;53.742;-2.990;2022-09-04T05:23:48;12;12;
73414;PMS5003;61633;53.742;-2.990;2022-09-04T05:26:13;11;11;
73414;PMS5003;61633;53.742;-2.990;2022-09-04T05:28:41;10;10;
73414;PMS5003;61633;53.742;-2.990;2022-09-04T05:31:04;10;10;
73414;PMS5003;61633;53.742;-2.990;2022-09-04T05:33:29;12;12;
73414;PMS5003;61633;53.742;-2.990;2022-09-04T05:35:53;10;10;
73414;PMS5003;61633;53.742;-2.990;2022-09-04T05:38:20;10;10;
73414;PMS5003;61633;53.742;-2.990;2022-09-04T05:40:51;11;11;
73414;PMS5003;61633;53.742;-2.990;2022-09-04T05:43:13;14;13;
73414;PMS5003;61633;53.742;-2.990;2022-09-04T05:45:39;12;11;
73414;PMS5003;61633;53.742;-2.990;2022-09-04T05:48:03;15;12;
73414;PMS5003;61633;53.742;-2.990;2022-09-04T05:50:30;14;13;
73414;PMS5003;61633;53.742;-2.990;2022-09-04T05:52:59;14;12;
73414;PMS5003;61633;53.742;-2.990;2022-09-04T05:55:21;13;12;
73414;PMS5003;61633;53.742;-2.990;2022-09-04T05:57:45;12;10;
73414;PMS5003;61633;53.742;-2.990;2022-09-04T06:00:09;12;11;
73414;PMS5003;61633;53.742;-2.990;2022-09-04T06:02:43;14;13;
73414;PMS5003;61633;53.742;-2.990;2022-09-04T06:07:25;11;11;
73414;PMS5003;61633;53.742;-2.990;2022-09-04T06:09:54;14;13;
73414;PMS5003;61633;53.742;-2.990;2022-09-04T06:12:19;14;13;
73414;PMS5003;61633;53.742;-2.990;2022-09-04T06:14:44;15;15;
73414;PMS5003;61633;53.742;-2.990;2022-09-04T06:17:10;15;14;
73414;PMS5003;61633;53.742;-2.990;2022-09-04T06:19:38;12;12;
73414;PMS5003;61633;53.742;-2.990;2022-09-04T06:22:01;12;12;
73414;PMS5003;61633;53.742;-2.990;2022-09-04T06:24:25;13;11;
73414;PMS5003;61633;53.742;-2.990;2022-09-04T06:27:01;15;14;
73414;PMS5003;61633;53.742;-2.990;2022-09-04T06:29:18;14;14;
73414;PMS5003;61633;53.742;-2.990;2022-09-04T06:31:49;13;11;
73414;PMS5003;61633;53.742;-2.990;2022-09-04T06:34:05;14;14;
73414;PMS5003;61633;53.742;-2.990;2022-09-04T06:36:38;13;13;
73414;PMS5003;61633;53.742;-2.990;2022-09-04T06:39:01;16;12;
73414;PMS5003;61633;53.742;-2.990;2022-09-04T06:41:27;14;14;
73414;PMS5003;61633;53.742;-2.990;2022-09-04T06:43:48;14;11;
73414;PMS5003;61633;53.742;-2.990;2022-09-04T06:46:21;15;14;
73414;PMS5003;61633;53.742;-2.990;2022-09-04T06:48:41;15;15;
73414;PMS5003;61633;53.742;-2.990;2022-09-04T06:51:08;12;12;
73414;PMS5003;61633;53.742;-2.990;2022-09-04T06:53:33;15;14;
73414;PMS5003;61633;53.742;-2.990;2022-09-04T06:56:00;13;13;
73414;PMS5003;61633;53.742;-2.990;2022-09-04T06:58:26;17;16;
73414;PMS5003;61633;53.742;-2.990;2022-09-04T07:00:47;13;13;
73414;PMS5003;61633;53.742;-2.990;2022-09-04T07:03:15;15;15;
73414;PMS5003;61633;53.742;-2.990;2022-09-04T07:05:39;14;12;
73414;PMS5003;61633;53.742;-2.990;2022-09-04T07:08:04;13;13;
73414;PMS5003;61633;53.742;-2.990;2022-09-04T07:10:29;15;14;
73414;PMS5003;61633;53.742;-2.990;2022-09-04T07:12:58;18;17;
73414;PMS5003;61633;53.742;-2.990;2022-09-04T07:15:26;17;16;
73414;PMS5003;61633;53.742;-2.990;2022-09-04T07:17:46;17;14;
73414;PMS5003;61633;53.742;-2.990;2022-09-04T07:20:12;15;14;
73414;PMS5003;61633;53.742;-2.990;2022-09-04T07:25:06;12;11;
73414;PMS5003;61633;53.742;-2.990;2022-09-04T07:27:31;16;11;
73414;PMS5003;61633;53.742;-2.990;2022-09-04T07:29:53;11;11;
73414;PMS5003;61633;53.742;-2.990;2022-09-04T07:32:19;15;15;
73414;PMS5003;61633;53.742;-2.990;2022-09-04T07:34:45;15;14;
73414;PMS5003;61633;53.742;-2.990;2022-09-04T07:37:12;15;15;
73414;PMS5003;61633;53.742;-2.990;2022-09-04T07:39:35;15;14;
73414;PMS5003;61633;53.742;-2.990;2022-09-04T07:42:00;13;13;
73414;PMS5003;61633;53.742;-2.990;2022-09-04T07:44:27;16;15;
73414;PMS5003;61633;53.742;-2.990;2022-09-04T07:47:00;15;14;
73414;PMS5003;61633;53.742;-2.990;2022-09-04T07:49:18;17;15;
73414;PMS5003;61633;53.742;-2.990;2022-09-04T07:51:42;16;15;
73414;PMS5003;61633;53.742;-2.990;2022-09-04T07:54:10;16;15;
73414;PMS5003;61633;53.742;-2.990;2022-09-04T07:56:36;12;12;
73414;PMS5003;61633;53.742;-2.990;2022-09-04T07:59:05;19;16;
73414;PMS5003;61633;53.742;-2.990;2022-09-04T08:01:27;16;15;
73414;PMS5003;61633;53.742;-2.990;2022-09-04T08:03:54;15;13;
73414;PMS5003;61633;53.742;-2.990;2022-09-04T08:06:15;14;14;
73414;PMS5003;61633;53.742;-2.990;2022-09-04T08:08:43;16;15;
73414;PMS5003;61633;53.742;-2.990;2022-09-04T08:11:09;16;16;
73414;PMS5003;61633;53.742;-2.990;2022-09-04T08:13:34;17;15;
73414;PMS5003;61633;53.742;-2.990;2022-09-04T08:15:58;15;15;
73414;PMS5003;61633;53.742;-2.990;2022-09-04T08:18:24;16;12;
73414;PMS5003;61633;53.742;-2.990;2022-09-04T08:20:49;13;12;
73414;PMS5003;61633;53.742;-2.990;2022-09-04T08:23:17;16;12;
73414;PMS5003;61633;53.742;-2.990;2022-09-04T08:28:06;15;14;
73414;PMS5003;61633;53.742;-2.990;2022-09-04T08:30:28;16;15;
73414;PMS5003;61633;53.742;-2.990;2022-09-04T08:33:04;14;13;
73414;PMS5003;61633;53.742;-2.990;2022-09-04T08:35:21;17;17;
73414;PMS5003;61633;53.742;-2.990;2022-09-04T08:37:48;14;13;
73414;PMS5003;61633;53.742;-2.990;2022-09-04T08:40:24;16;14;
73414;PMS5003;61633;53.742;-2.990;2022-09-04T08:42:47;15;13;
73414;PMS5003;61633;53.742;-2.990;2022-09-04T08:47:31;16;15;
73414;PMS5003;61633;53.742;-2.990;2022-09-04T08:54:47;16;15;
73414;PMS5003;61633;53.742;-2.990;2022-09-04T08:57:13;14;14;
73414;PMS5003;61633;53.742;-2.990;2022-09-04T08:59:37;16;15;
73414;PMS5003;61633;53.742;-2.990;2022-09-04T09:04:26;17;13;
73414;PMS5003;61633;53.742;-2.990;2022-09-04T09:11:45;12;12;
73414;PMS5003;61633;53.742;-2.990;2022-09-04T09:16:35;18;17;
73414;PMS5003;61633;53.742;-2.990;2022-09-04T09:21:24;15;15;
73414;PMS5003;61633;53.742;-2.990;2022-09-04T09:24:02;14;14;
73414;PMS5003;61633;53.742;-2.990;2022-09-04T09:26:20;17;14;
73414;PMS5003;61633;53.742;-2.990;2022-09-04T09:33:34;18;14;
73414;PMS5003;61633;53.742;-2.990;2022-09-04T09:48:07;3;3;
73414;PMS5003;61633;53.742;-2.990;2022-09-04T09:53:02;4;4;
73414;PMS5003;61633;53.742;-2.990;2022-09-04T09:55:23;3;3;
73414;PMS5003;61633;53.742;-2.990;2022-09-04T09:57:48;4;3;
73414;PMS5003;61633;53.742;-2.990;2022-09-04T10:00:11;3;3;
73414;PMS5003;61633;53.742;-2.990;2022-09-04T10:10:02;3;3;
73414;PMS5003;61633;53.742;-2.990;2022-09-04T10:12:27;4;3;
73414;PMS5003;61633;53.742;-2.990;2022-09-04T10:17:15;5;4;
73414;PMS5003;61633;53.742;-2.990;2022-09-04T10:19:38;2;2;
73414;PMS5003;61633;53.742;-2.990;2022-09-04T10:24:31;4;3;
73414;PMS5003;61633;53.742;-2.990;2022-09-04T10:26:54;4;4;
73414;PMS5003;61633;53.742;-2.990;2022-09-04T10:34:10;4;4;
73414;PMS5003;61633;53.742;-2.990;2022-09-04T10:36:33;4;4;
73414;PMS5003;61633;53.742;-2.990;2022-09-04T10:39:01;3;3;
73414;PMS5003;61633;53.742;-2.990;2022-09-04T10:41:26;4;3;
73414;PMS5003;61633;53.742;-2.990;2022-09-04T10:44:00;5;4;
73414;PMS5003;61633;53.742;-2.990;2022-09-04T10:46:15;3;3;
73414;PMS5003;61633;53.742;-2.990;2022-09-04T10:48:45;5;3;
73414;PMS5003;61633;53.742;-2.990;2022-09-04T10:51:09;5;3;
73414;PMS5003;61633;53.742;-2.990;2022-09-04T10:53:33;7;5;
73414;PMS5003;61633;53.742;-2.990;2022-09-04T10:55:57;2;2;
73414;PMS5003;61633;53.742;-2.990;2022-09-04T10:58:24;5;3;
73414;PMS5003;61633;53.742;-2.990;2022-09-04T11:00:49;3;3;
73414;PMS5003;61633;53.742;-2.990;2022-09-04T11:03:20;3;3;
73414;PMS5003;61633;53.742;-2.990;2022-09-04T11:08:09;2;2;
73414;PMS5003;61633;53.742;-2.990;2022-09-04T11:10:33;3;2;
73414;PMS5003;61633;53.742;-2.990;2022-09-04T11:13:02;4;4;
73414;PMS5003;61633;53.742;-2.990;2022-09-04T11:15:23;3;3;
73414;PMS5003;61633;53.742;-2.990;2022-09-04T11:22:43;4;4;
73414;PMS5003;61633;53.742;-2.990;2022-09-04T11:29:52;6;4;
73414;PMS5003;61633;53.742;-2.990;2022-09-04T11:32:22;7;7;
73414;PMS5003;61633;53.742;-2.990;2022-09-04T11:37:13;8;6;
73414;PMS5003;61633;53.742;-2.990;2022-09-04T11:44:27;6;6;
73414;PMS5003;61633;53.742;-2.990;2022-09-04T11:47:02;6;6;
73414;PMS5003;61633;53.742;-2.990;2022-09-04T11:49:26;6;5;
73414;PMS5003;61633;53.742;-2.990;2022-09-04T11:54:17;4;4;
73414;PMS5003;61633;53.742;-2.990;2022-09-04T11:59:02;5;5;
73414;PMS5003;61633;53.742;-2.990;2022-09-04T12:01:27;3;3;
73414;PMS5003;61633;53.742;-2.990;2022-09-04T12:03:56;6;5;
73414;PMS5003;61633;53.742;-2.990;2022-09-04T12:06:17;8;6;
73414;PMS5003;61633;53.742;-2.990;2022-09-04T12:08:45;4;4;
73414;PMS5003;61633;53.742;-2.990;2022-09-04T12:11:09;4;3;
73414;PMS5003;61633;53.742;-2.990;2022-09-04T12:13:32;7;6;
73414;PMS5003;61633;53.742;-2.990;2022-09-04T12:16:05;4;4;
73414;PMS5003;61633;53.742;-2.990;2022-09-04T12:18:25;5;5;
73414;PMS5003;61633;53.742;-2.990;2022-09-04T12:20:54;7;6;
73414;PMS5003;61633;53.742;-2.990;2022-09-04T12:25:44;6;6;
73414;PMS5003;61633;53.742;-2.990;2022-09-04T12:28:14;5;5;
73414;PMS5003;61633;53.742;-2.990;2022-09-04T12:30:28;6;6;
73414;PMS5003;61633;53.742;-2.990;2022-09-04T12:35:24;5;5;
73414;PMS5003;61633;53.742;-2.990;2022-09-04T12:37:53;7;7;
73414;PMS5003;61633;53.742;-2.990;2022-09-04T12:42:35;6;6;
73414;PMS5003;61633;53.742;-2.990;2022-09-04T12:45:01;5;5;
73414;PMS5003;61633;53.742;-2.990;2022-09-04T12:47:28;4;4;
73414;PMS5003;61633;53.742;-2.990;2022-09-04T12:49:58;7;6;
73414;PMS5003;61633;53.742;-2.990;2022-09-04T12:52:18;5;5;
73414;PMS5003;61633;53.742;-2.990;2022-09-04T12:54:41;5;5;
73414;PMS5003;61633;53.742;-2.990;2022-09-04T12:57:12;8;6;
73414;PMS5003;61633;53.742;-2.990;2022-09-04T12:59:35;7;7;
73414;PMS5003;61633;53.742;-2.990;2022-09-04T13:02:03;6;5;
73414;PMS5003;61633;53.742;-2.990;2022-09-04T13:04:22;4;4;
73414;PMS5003;61633;53.742;-2.990;2022-09-04T13:06:50;5;5;
73414;PMS5003;61633;53.742;-2.990;2022-09-04T13:09:15;5;5;
73414;PMS5003;61633;53.742;-2.990;2022-09-04T13:11:41;5;4;
73414;PMS5003;61633;53.742;-2.990;2022-09-04T13:14:14;5;5;
73414;PMS5003;61633;53.742;-2.990;2022-09-04T13:16:30;6;6;
73414;PMS5003;61633;53.742;-2.990;2022-09-04T13:18:57;5;4;
73414;PMS5003;61633;53.742;-2.990;2022-09-04T13:21:23;8;5;
73414;PMS5003;61633;53.742;-2.990;2022-09-04T13:23:50;7;7;
73414;PMS5003;61633;53.742;-2.990;2022-09-04T13:26:14;7;6;
73414;PMS5003;61633;53.742;-2.990;2022-09-04T13:28:38;7;7;
73414;PMS5003;61633;53.742;-2.990;2022-09-04T13:31:04;7;6;
73414;PMS5003;61633;53.742;-2.990;2022-09-04T13:33:27;9;8;
73414;PMS5003;61633;53.742;-2.990;2022-09-04T13:35:59;11;9;
73414;PMS5003;61633;53.742;-2.990;2022-09-04T13:38:25;8;8;
73414;PMS5003;61633;53.742;-2.990;2022-09-04T13:43:13;10;10;
73414;PMS5003;61633;53.742;-2.990;2022-09-04T13:45:35;11;11;
73414;PMS5003;61633;53.742;-2.990;2022-09-04T13:48:00;8;7;
73414;PMS5003;61633;53.742;-2.990;2022-09-04T13:50:29;7;7;
73414;PMS5003;61633;53.742;-2.990;2022-09-04T13:52:50;9;9;
73414;PMS5003;61633;53.742;-2.990;2022-09-04T13:55:15;5;5;
73414;PMS5003;61633;53.742;-2.990;2022-09-04T13:57:40;2;2;
73414;PMS5003;61633;53.742;-2.990;2022-09-04T14:00:11;1;1;
73414;PMS5003;61633;53.742;-2.990;2022-09-04T14:02:30;4;4;
73414;PMS5003;61633;53.742;-2.990;2022-09-04T14:04:57;5;5;
73414;PMS5003;61633;53.742;-2.990;2022-09-04T14:07:24;4;4;
73414;PMS5003;61633;53.742;-2.990;2022-09-04T14:09:47;2;2;
73414;PMS5003;61633;53.742;-2.990;2022-09-04T14:12:17;4;4;
73414;PMS5003;61633;53.742;-2.990;2022-09-04T14:14:42;4;3;
73414;PMS5003;61633;53.742;-2.990;2022-09-04T14:17:07;4;4;
73414;PMS5003;61633;53.742;-2.990;2022-09-04T14:19:31;5;4;
73414;PMS5003;61633;53.742;-2.990;2022-09-04T14:21:59;4;3;
73414;PMS5003;61633;53.742;-2.990;2022-09-04T14:24:20;3;3;
73414;PMS5003;61633;53.742;-2.990;2022-09-04T14:26:46;3;3;
73414;PMS5003;61633;53.742;-2.990;2022-09-04T14:29:12;5;5;
73414;PMS5003;61633;53.742;-2.990;2022-09-04T14:31:36;5;5;
73414;PMS5003;61633;53.742;-2.990;2022-09-04T14:34:01;6;6;
73414;PMS5003;61633;53.742;-2.990;2022-09-04T14:36:29;5;5;
73414;PMS5003;61633;53.742;-2.990;2022-09-04T14:38:54;6;6;
73414;PMS5003;61633;53.742;-2.990;2022-09-04T14:41:19;6;5;
73414;PMS5003;61633;53.742;-2.990;2022-09-04T14:43:43;4;4;
73414;PMS5003;61633;53.742;-2.990;2022-09-04T14:46:09;6;5;
73414;PMS5003;61633;53.742;-2.990;2022-09-04T14:48:33;6;6;
73414;PMS5003;61633;53.742;-2.990;2022-09-04T14:51:07;6;5;
73414;PMS5003;61633;53.742;-2.990;2022-09-04T14:53:23;6;5;
73414;PMS5003;61633;53.742;-2.990;2022-09-04T14:58:14;7;6;
73414;PMS5003;61633;53.742;-2.990;2022-09-04T15:03:05;5;5;
73414;PMS5003;61633;53.742;-2.990;2022-09-04T15:05:29;5;5;
73414;PMS5003;61633;53.742;-2.990;2022-09-04T15:07:56;4;4;
73414;PMS5003;61633;53.742;-2.990;2022-09-04T15:10:21;5;5;
73414;PMS5003;61633;53.742;-2.990;2022-09-04T15:12:48;5;4;
73414;PMS5003;61633;53.742;-2.990;2022-09-04T15:15:13;5;5;
73414;PMS5003;61633;53.742;-2.990;2022-09-04T15:17:36;4;4;
73414;PMS5003;61633;53.742;-2.990;2022-09-04T15:20:02;5;5;
73414;PMS5003;61633;53.742;-2.990;2022-09-04T15:22:30;6;6;
73414;PMS5003;61633;53.742;-2.990;2022-09-04T15:24:54;6;6;
73414;PMS5003;61633;53.742;-2.990;2022-09-04T15:27:19;4;4;
73414;PMS5003;61633;53.742;-2.990;2022-09-04T15:29:47;5;5;
73414;PMS5003;61633;53.742;-2.990;2022-09-04T15:32:09;7;6;
73414;PMS5003;61633;53.742;-2.990;2022-09-04T15:34:34;3;3;
73414;PMS5003;61633;53.742;-2.990;2022-09-04T15:37:08;5;4;
73414;PMS5003;61633;53.742;-2.990;2022-09-04T15:39:26;4;4;
73414;PMS5003;61633;53.742;-2.990;2022-09-04T15:41:50;6;5;
73414;PMS5003;61633;53.742;-2.990;2022-09-04T15:44:16;4;3;
73414;PMS5003;61633;53.742;-2.990;2022-09-04T15:46:42;3;3;
73414;PMS5003;61633;53.742;-2.990;2022-09-04T15:51:36;6;6;
73414;PMS5003;61633;53.742;-2.990;2022-09-04T15:56:27;6;6;
73414;PMS5003;61633;53.742;-2.990;2022-09-04T15:58:48;6;5;
73414;PMS5003;61633;53.742;-2.990;2022-09-04T16:01:13;5;5;
73414;PMS5003;61633;53.742;-2.990;2022-09-04T16:03:42;5;5;
73414;PMS5003;61633;53.742;-2.990;2022-09-04T16:06:04;5;5;
73414;PMS5003;61633;53.742;-2.990;2022-09-04T16:08:30;4;4;
73414;PMS5003;61633;53.742;-2.990;2022-09-04T16:10:56;4;4;
73414;PMS5003;61633;53.742;-2.990;2022-09-04T16:13:30;4;4;
73414;PMS5003;61633;53.742;-2.990;2022-09-04T16:15:45;4;4;
73414;PMS5003;61633;53.742;-2.990;2022-09-04T16:18:12;4;4;
73414;PMS5003;61633;53.742;-2.990;2022-09-04T16:20:37;3;3;
73414;PMS5003;61633;53.742;-2.990;2022-09-04T16:23:01;3;3;
73414;PMS5003;61633;53.742;-2.990;2022-09-04T16:25:27;3;3;
73414;PMS5003;61633;53.742;-2.990;2022-09-04T16:27:52;5;4;
73414;PMS5003;61633;53.742;-2.990;2022-09-04T16:32:43;3;3;
73414;PMS5003;61633;53.742;-2.990;2022-09-04T16:35:14;5;4;
73414;PMS5003;61633;53.742;-2.990;2022-09-04T16:37:35;3;3;
73414;PMS5003;61633;53.742;-2.990;2022-09-04T16:40:02;2;2;
73414;PMS5003;61633;53.742;-2.990;2022-09-04T16:42:26;3;3;
73414;PMS5003;61633;53.742;-2.990;2022-09-04T16:44:50;4;4;
73414;PMS5003;61633;53.742;-2.990;2022-09-04T16:47:16;4;3;
73414;PMS5003;61633;53.742;-2.990;2022-09-04T16:49:42;5;2;
73414;PMS5003;61633;53.742;-2.990;2022-09-04T16:54:32;7;4;
73414;PMS5003;61633;53.742;-2.990;2022-09-04T16:57:06;4;4;
73414;PMS5003;61633;53.742;-2.990;2022-09-04T16:59:23;4;4;
73414;PMS5003;61633;53.742;-2.990;2022-09-04T17:01:49;1;1;
73414;PMS5003;61633;53.742;-2.990;2022-09-04T17:04:17;4;4;
73414;PMS5003;61633;53.742;-2.990;2022-09-04T17:06:40;2;2;
73414;PMS5003;61633;53.742;-2.990;2022-09-04T17:09:04;5;5;
73414;PMS5003;61633;53.742;-2.990;2022-09-04T17:11:32;4;4;
73414;PMS5003;61633;53.742;-2.990;2022-09-04T17:13:56;3;3;
73414;PMS5003;61633;53.742;-2.990;2022-09-04T17:16:20;3;2;
73414;PMS5003;61633;53.742;-2.990;2022-09-04T17:18:45;4;2;
73414;PMS5003;61633;53.742;-2.990;2022-09-04T17:21:13;3;3;
73414;PMS5003;61633;53.742;-2.990;2022-09-04T17:23:36;3;3;
73414;PMS5003;61633;53.742;-2.990;2022-09-04T17:26:05;4;4;
73414;PMS5003;61633;53.742;-2.990;2022-09-04T17:28:31;5;5;
73414;PMS5003;61633;53.742;-2.990;2022-09-04T17:30:53;11;8;
73414;PMS5003;61633;53.742;-2.990;2022-09-04T17:33:19;6;6;
73414;PMS5003;61633;53.742;-2.990;2022-09-04T17:35:43;5;5;
73414;PMS5003;61633;53.742;-2.990;2022-09-04T17:38:13;9;8;
73414;PMS5003;61633;53.742;-2.990;2022-09-04T17:40:36;9;7;
73414;PMS5003;61633;53.742;-2.990;2022-09-04T17:43:04;6;6;
73414;PMS5003;61633;53.742;-2.990;2022-09-04T17:45:28;7;6;
73414;PMS5003;61633;53.742;-2.990;2022-09-04T17:50:16;5;5;
73414;PMS5003;61633;53.742;-2.990;2022-09-04T17:55:07;8;8;
73414;PMS5003;61633;53.742;-2.990;2022-09-04T17:57:41;6;6;
73414;PMS5003;61633;53.742;-2.990;2022-09-04T17:59:59;10;9;
73414;PMS5003;61633;53.742;-2.990;2022-09-04T18:02:24;9;7;
73414;PMS5003;61633;53.742;-2.990;2022-09-04T18:04:48;7;7;
73414;PMS5003;61633;53.742;-2.990;2022-09-04T18:07:17;8;8;
73414;PMS5003;61633;53.742;-2.990;2022-09-04T18:09:40;6;6;